Portada
METAR-TAF:

METAR-TAF

Aeroports :

Aeroport de Gran Canària

Gran Canària, Espanya

latitud: 27-56N, longitud: 015-23W, altitud: 23 m

Observació

L'informe es va fer fa 15 minuts, a les 03:30 UTC
Vent 5 kt del Oest
Temperatura 18°C
Humitat 77%
Pressió 1016 hPa
Visibilitat 10 km o més
Escasses núvols a una alçada de 2000 ft
Núvols disperses a una alçada de 4500 ft

METAR: GCLP 210330Z 27005KT 9999 FEW020 SCT045 18/14 Q1016 NOSIG

Hora: 03:45 (03:45 UTC)

Pronòstic

L'informe es va fer fa 1 hora i 45 minuts, a les 02:00 UTC
Pronòstic vàlid del 21 a les 03 UTC al 22 a les 03 UTC
Vent 4 kt del Oest
Visibilitat 10 km o més
Núvols disperses a una alçada de 3500 ft
Probabilitat 30% :
Temporalment
l' 21 a les 12 UTC al 21 a les 18 UTC
Vent 10 kt del Sud/Sud-Est

TAF: GCLP 210200Z 2103/2203 27004KT 9999 SCT035 TX24/2114Z TN17/2107Z PROB30 TEMPO 2112/2118 15010KT

Observacions i pronòstics meteorològics de més de 4000 aeroports (METAR i TAF).

Les estacions disponibles són els punts grocs i vermells al mapa.

Posi el ratolí al punt desitjat per veure el nom de l'estació.

Feu clic per veure les observacions i els pronòstics meteorològics.

Per canviar el mapa: feu clic els botons verds amb una creu de color negre per apropar; al botó verd amb un guió per allunyar la imatge; o en les fletxes verdes per a mapes adjacents.


METAR-TAF: